createdAt,value
2023-01-11T00:00:05.097Z,62.63
2023-01-11T00:02:31.668Z,63.51
2023-01-11T00:04:58.212Z,63.89
2023-01-11T00:07:24.719Z,63.98
2023-01-11T00:09:51.225Z,65.94
2023-01-11T00:12:17.861Z,64.40
2023-01-11T00:14:44.335Z,64.80
2023-01-11T00:17:10.831Z,63.97
2023-01-11T00:19:37.336Z,63.21
2023-01-11T00:22:03.859Z,63.91
2023-01-11T00:24:30.373Z,64.16
2023-01-11T00:26:56.803Z,62.72
2023-01-11T00:29:23.299Z,63.17
2023-01-11T00:31:49.745Z,63.87
2023-01-11T00:34:16.202Z,64.10
2023-01-11T00:36:46.020Z,64.78
2023-01-11T00:39:12.625Z,63.65
2023-01-11T00:41:39.084Z,62.48
2023-01-11T00:44:05.800Z,64.10
2023-01-11T00:46:33.427Z,63.91
2023-01-11T00:48:59.821Z,64.62
2023-01-11T00:51:26.324Z,63.90
2023-01-11T00:53:52.802Z,64.38
2023-01-11T00:56:19.273Z,63.86
2023-01-11T00:58:45.759Z,63.78
2023-01-11T01:01:12.206Z,64.54
2023-01-11T01:03:38.650Z,64.31
2023-01-11T01:06:05.154Z,64.46
2023-01-11T01:08:31.641Z,64.29
2023-01-11T01:10:58.162Z,64.55
2023-01-11T01:13:24.554Z,64.93
2023-01-11T01:15:51.016Z,65.47
2023-01-11T01:18:17.596Z,64.68
2023-01-11T01:20:44.081Z,64.09
2023-01-11T01:23:19.628Z,64.01
2023-01-11T01:25:46.123Z,64.40
2023-01-11T01:28:12.907Z,65.52
2023-01-11T01:30:41.851Z,66.26
2023-01-11T01:33:08.201Z,66.68
2023-01-11T01:38:25.188Z,67.12
2023-01-11T01:40:51.591Z,65.79
2023-01-11T01:43:17.992Z,66.14
2023-01-11T01:45:48.067Z,66.13
2023-01-11T01:48:16.529Z,66.38
2023-01-11T01:50:42.931Z,66.84
2023-01-11T01:53:09.334Z,66.49
2023-01-11T01:55:35.747Z,65.70
2023-01-11T01:58:02.242Z,65.69
2023-01-11T02:00:28.771Z,65.50
2023-01-11T02:02:55.320Z,64.99
2023-01-11T02:08:15.997Z,66.02
2023-01-11T02:10:42.550Z,65.64
2023-01-11T02:13:09.074Z,65.65
2023-01-11T02:15:35.545Z,66.07
2023-01-11T02:18:02.002Z,65.63
2023-01-11T02:20:28.428Z,65.54
2023-01-11T02:22:54.906Z,64.91
2023-01-11T02:25:21.243Z,65.82
2023-01-11T02:27:47.692Z,65.52
2023-01-11T02:30:14.209Z,64.57
2023-01-11T02:32:40.687Z,64.53
2023-01-11T02:35:07.226Z,65.61
2023-01-11T02:37:33.679Z,65.40
2023-01-11T02:40:00.174Z,65.55
2023-01-11T02:42:26.726Z,65.85
2023-01-11T02:44:53.235Z,66.38
2023-01-11T02:47:19.677Z,63.68
2023-01-11T02:49:46.312Z,63.98
2023-01-11T02:52:12.845Z,63.54
2023-01-11T02:54:39.309Z,64.69
2023-01-11T02:57:05.854Z,65.46
2023-01-11T03:02:12.647Z,65.69
2023-01-11T03:04:39.101Z,65.62
2023-01-11T03:07:05.633Z,67.03
2023-01-11T03:09:32.087Z,66.36
2023-01-11T03:11:58.677Z,65.85
2023-01-11T03:14:25.131Z,65.66
2023-01-11T03:19:31.928Z,65.67
2023-01-11T03:21:58.368Z,64.75
2023-01-11T03:24:24.883Z,65.78
2023-01-11T03:26:51.405Z,66.26
2023-01-11T03:29:17.860Z,65.74
2023-01-11T03:31:44.837Z,65.18
2023-01-11T03:34:11.242Z,66.76
2023-01-11T03:39:21.039Z,67.07
2023-01-11T03:44:27.788Z,67.10
2023-01-11T03:49:34.553Z,66.80
2023-01-11T03:52:01.014Z,66.66
2023-01-11T03:54:27.458Z,67.19
2023-01-11T03:56:53.942Z,66.71
2023-01-11T03:59:20.407Z,67.37
2023-01-11T04:01:52.585Z,66.91
2023-01-11T04:04:19.168Z,67.10
2023-01-11T04:06:45.764Z,66.51
2023-01-11T04:09:12.285Z,66.29
2023-01-11T04:11:38.728Z,66.08
2023-01-11T04:16:45.526Z,66.94
2023-01-11T04:19:12.015Z,66.60
2023-01-11T04:21:38.511Z,66.93
2023-01-11T04:24:04.968Z,67.09
2023-01-11T04:26:31.461Z,67.28
2023-01-11T04:28:57.857Z,67.59
2023-01-11T04:31:24.477Z,67.30
2023-01-11T04:36:31.278Z,66.30
2023-01-11T04:38:57.760Z,65.89
2023-01-11T04:41:24.400Z,66.16
2023-01-11T04:43:51.064Z,65.89
2023-01-11T04:46:17.566Z,66.39
2023-01-11T04:48:44.064Z,67.15
2023-01-11T04:51:10.614Z,66.60
2023-01-11T04:53:37.086Z,67.06
2023-01-11T04:56:03.514Z,66.87
2023-01-11T04:58:30.026Z,66.47
2023-01-11T05:00:58.736Z,66.21
2023-01-11T05:03:25.608Z,66.90
2023-01-11T05:05:52.096Z,67.88
2023-01-11T05:08:18.536Z,67.70
2023-01-11T05:10:45.049Z,65.78
2023-01-11T05:13:11.494Z,65.28
2023-01-11T05:18:28.439Z,64.33
2023-01-11T05:20:54.940Z,63.77
2023-01-11T05:23:29.531Z,63.19
2023-01-11T05:26:16.425Z,64.40
2023-01-11T05:28:42.813Z,64.46
2023-01-11T05:31:09.307Z,64.07
2023-01-11T05:33:35.889Z,63.34
2023-01-11T05:36:02.334Z,63.78
2023-01-11T05:38:28.678Z,64.40
2023-01-11T05:40:55.209Z,64.23
2023-01-11T05:43:21.659Z,63.49
2023-01-11T05:45:48.246Z,63.09
2023-01-11T05:48:14.982Z,63.02
2023-01-11T05:50:44.017Z,62.71
2023-01-11T05:53:13.365Z,62.86
2023-01-11T05:55:39.851Z,63.23
2023-01-11T05:58:06.345Z,62.91
2023-01-11T06:00:32.802Z,63.15
2023-01-11T06:02:59.438Z,64.18
2023-01-11T06:05:26.056Z,64.10
2023-01-11T06:07:52.534Z,63.76
2023-01-11T06:10:19.015Z,63.33
2023-01-11T06:12:45.474Z,63.03
2023-01-11T06:15:11.959Z,63.00
2023-01-11T06:17:38.546Z,62.90
2023-01-11T06:20:07.936Z,63.30
2023-01-11T06:22:34.406Z,62.34
2023-01-11T06:25:00.949Z,62.29
2023-01-11T06:27:27.326Z,61.77
2023-01-11T06:30:01.214Z,61.39
2023-01-11T06:32:27.598Z,61.64
2023-01-11T06:37:39.523Z,61.48
2023-01-11T06:40:05.929Z,61.02
2023-01-11T06:42:32.370Z,61.51
2023-01-11T06:45:02.808Z,61.38
2023-01-11T06:47:29.229Z,60.87
2023-01-11T06:49:55.621Z,61.29
2023-01-11T06:52:22.311Z,61.66
2023-01-11T06:54:48.675Z,61.50
2023-01-11T06:57:15.419Z,61.77
2023-01-11T06:59:41.956Z,62.21
2023-01-11T07:02:08.670Z,61.43
2023-01-11T07:04:35.018Z,61.50
2023-01-11T07:07:01.660Z,62.20
2023-01-11T07:14:53.279Z,61.02
2023-01-11T07:17:22.105Z,61.04
2023-01-11T07:19:48.486Z,61.36
2023-01-11T07:22:14.947Z,61.25
2023-01-11T07:24:41.389Z,62.43
2023-01-11T07:29:58.157Z,61.46
2023-01-11T07:32:24.689Z,60.16
2023-01-11T07:34:51.144Z,59.31
2023-01-11T07:37:28.953Z,59.88
2023-01-11T07:39:55.831Z,59.63
2023-01-11T07:42:22.247Z,59.08
2023-01-11T07:47:39.424Z,58.76
2023-01-11T07:50:05.900Z,57.97
2023-01-11T07:52:32.395Z,57.74
2023-01-11T07:55:02.251Z,57.54
2023-01-11T07:57:28.792Z,57.77
2023-01-11T07:59:55.602Z,58.49
2023-01-11T08:02:23.225Z,57.87
2023-01-11T08:04:49.823Z,59.48
2023-01-11T08:07:16.364Z,61.00
2023-01-11T08:09:42.839Z,60.91
2023-01-11T08:12:09.284Z,64.72
2023-01-11T08:14:35.699Z,61.28
2023-01-11T08:17:02.083Z,62.47
2023-01-11T08:19:28.563Z,63.07
2023-01-11T08:21:57.070Z,63.07
2023-01-11T08:24:23.416Z,63.60
2023-01-11T08:29:41.480Z,62.85
2023-01-11T08:32:08.067Z,62.99
2023-01-11T08:34:34.710Z,62.83
2023-01-11T08:37:01.195Z,60.79
2023-01-11T08:39:27.646Z,61.96
2023-01-11T08:41:54.060Z,61.72
2023-01-11T08:44:33.321Z,59.91
2023-01-11T08:47:00.446Z,59.87
2023-01-11T08:49:26.930Z,61.84
2023-01-11T08:51:53.454Z,61.83
2023-01-11T08:54:19.999Z,62.31
2023-01-11T08:56:46.479Z,58.20
2023-01-11T08:59:12.806Z,57.63
2023-01-11T09:01:39.292Z,59.38
2023-01-11T09:04:19.203Z,60.02
2023-01-11T09:06:50.046Z,58.87
2023-01-11T09:09:16.472Z,57.80
2023-01-11T09:11:42.854Z,58.45
2023-01-11T09:14:09.302Z,58.86
2023-01-11T09:16:35.652Z,58.49
2023-01-11T09:19:02.054Z,60.47
2023-01-11T09:21:28.515Z,59.48
2023-01-11T09:23:54.898Z,60.81
2023-01-11T09:26:21.235Z,59.53
2023-01-11T09:28:47.771Z,59.86
2023-01-11T09:31:14.294Z,60.06
2023-01-11T09:33:45.731Z,59.97
2023-01-11T09:36:12.091Z,60.10
2023-01-11T09:38:38.648Z,60.32
2023-01-11T09:41:04.984Z,61.12
2023-01-11T09:43:32.908Z,60.85
2023-01-11T09:46:17.810Z,63.11
2023-01-11T09:48:46.336Z,61.04
2023-01-11T09:51:15.082Z,60.49
2023-01-11T09:53:41.499Z,60.41
2023-01-11T09:56:09.621Z,60.75
2023-01-11T09:58:36.129Z,60.40
2023-01-11T10:01:02.604Z,60.22
2023-01-11T10:03:30.690Z,59.10
2023-01-11T10:05:57.077Z,61.27
2023-01-11T10:18:29.104Z,60.95
2023-01-11T10:18:37.723Z,60.38
2023-01-11T10:19:41.986Z,61.36
2023-01-11T10:22:11.576Z,61.23
2023-01-11T10:24:41.567Z,61.84
2023-01-11T10:30:01.972Z,61.02
2023-01-11T10:32:28.397Z,60.54
2023-01-11T10:34:55.585Z,60.52
2023-01-11T10:37:22.300Z,60.12
2023-01-11T10:39:49.766Z,60.74
2023-01-11T10:42:16.745Z,60.87
2023-01-11T10:44:45.380Z,61.02
2023-01-11T10:47:11.786Z,60.04
2023-01-11T10:49:38.192Z,60.58
2023-01-11T10:52:05.551Z,61.60
2023-01-11T10:54:32.039Z,61.96
2023-01-11T10:57:01.737Z,61.11
2023-01-11T10:59:30.131Z,60.56
2023-01-11T11:01:56.986Z,60.78
2023-01-11T11:04:23.497Z,60.87
2023-01-11T11:06:49.937Z,61.64
2023-01-11T11:09:16.355Z,60.93
2023-01-11T11:11:42.919Z,61.11
2023-01-11T11:14:09.366Z,60.56
2023-01-11T11:16:35.822Z,60.72
2023-01-11T11:19:04.659Z,59.79
2023-01-11T11:21:31.126Z,60.62
2023-01-11T11:23:57.597Z,59.46
2023-01-11T11:26:24.035Z,60.03
2023-01-11T11:28:50.499Z,59.82
2023-01-11T11:31:16.879Z,61.07
2023-01-11T11:33:43.299Z,62.75
2023-01-11T11:36:09.687Z,61.10
2023-01-11T11:38:36.208Z,60.88
2023-01-11T11:41:02.580Z,62.33
2023-01-11T11:43:28.953Z,61.82
2023-01-11T11:45:55.426Z,61.97
2023-01-11T11:48:21.868Z,62.79
2023-01-11T11:50:48.235Z,64.27
2023-01-11T11:53:14.618Z,65.30
2023-01-11T11:55:41.044Z,64.08
2023-01-11T11:58:07.435Z,62.05
2023-01-11T12:03:17.315Z,61.64
2023-01-11T12:05:43.821Z,62.02
2023-01-11T12:08:12.194Z,61.57
2023-01-11T12:10:38.550Z,61.92
2023-01-11T12:13:04.988Z,63.06
2023-01-11T12:15:31.422Z,63.37
2023-01-11T12:17:57.799Z,63.01
2023-01-11T12:23:11.831Z,64.96
2023-01-11T12:25:38.171Z,64.53
2023-01-11T12:28:04.575Z,64.86
2023-01-11T12:30:30.958Z,67.27
2023-01-11T12:32:57.504Z,67.60
2023-01-11T12:35:23.877Z,67.19
2023-01-11T12:37:50.281Z,68.08
2023-01-11T12:40:16.711Z,66.83
2023-01-11T12:42:43.302Z,68.81
2023-01-11T12:45:09.714Z,69.39
2023-01-11T12:47:38.385Z,68.48
2023-01-11T12:52:46.295Z,69.21
2023-01-11T12:55:15.120Z,68.65
2023-01-11T12:57:42.511Z,67.42
2023-01-11T13:00:08.860Z,68.73
2023-01-11T13:02:35.287Z,69.19
2023-01-11T13:05:01.801Z,69.42
2023-01-11T13:07:28.160Z,69.86
2023-01-11T13:09:54.536Z,69.85
2023-01-11T13:12:23.853Z,69.51
2023-01-11T13:14:50.224Z,70.76
2023-01-11T13:17:16.545Z,71.68
2023-01-11T13:19:43.024Z,71.05
2023-01-11T13:22:09.394Z,70.71
2023-01-11T13:24:35.794Z,71.55
2023-01-11T13:27:02.571Z,71.54
2023-01-11T13:29:29.119Z,71.12
2023-01-11T13:31:55.519Z,71.07
2023-01-11T13:34:24.182Z,70.53
2023-01-11T13:36:50.612Z,70.53
2023-01-11T13:39:17.062Z,70.47
2023-01-11T13:41:43.392Z,70.73
2023-01-11T13:47:00.372Z,72.51
2023-01-11T13:49:26.736Z,72.08
2023-01-11T13:51:53.075Z,72.19
2023-01-11T13:54:19.440Z,72.38
2023-01-11T13:56:45.834Z,72.33
2023-01-11T13:59:12.190Z,72.79
2023-01-11T14:01:38.698Z,72.25
2023-01-11T14:04:05.554Z,71.44
2023-01-11T14:06:31.933Z,69.24
2023-01-11T14:08:58.305Z,70.10
2023-01-11T14:11:24.669Z,67.98
2023-01-11T14:13:51.155Z,67.86
2023-01-11T14:16:17.688Z,69.44
2023-01-11T14:18:44.135Z,69.00
2023-01-11T14:21:12.963Z,70.30
2023-01-11T14:23:40.875Z,70.03
2023-01-11T14:26:12.217Z,71.34
2023-01-11T14:28:38.568Z,69.82
2023-01-11T14:31:05.014Z,70.72
2023-01-11T14:33:31.515Z,71.33
2023-01-11T14:36:01.422Z,71.43
2023-01-11T14:38:27.837Z,71.93
2023-01-11T14:40:54.456Z,72.25
2023-01-11T14:43:20.819Z,72.32
2023-01-11T14:45:47.303Z,71.54
2023-01-11T14:48:13.762Z,71.53
2023-01-11T14:50:40.432Z,71.55
2023-01-11T14:53:06.903Z,71.82
2023-01-11T14:55:33.474Z,71.88
2023-01-11T14:57:59.887Z,72.19
2023-01-11T15:00:26.260Z,72.55
2023-01-11T15:02:53.574Z,73.00
2023-01-11T15:05:20.179Z,72.53
2023-01-11T15:07:46.516Z,74.19
2023-01-11T15:10:13.021Z,74.00
2023-01-11T15:12:39.443Z,73.26
2023-01-11T15:15:05.973Z,73.91
2023-01-11T15:17:32.600Z,73.88
2023-01-11T15:20:00.053Z,73.13
2023-01-11T15:22:26.434Z,74.33
2023-01-11T15:24:53.930Z,74.41
2023-01-11T15:27:25.135Z,74.22
2023-01-11T15:29:51.592Z,73.40
2023-01-11T15:32:18.017Z,73.69
2023-01-11T15:34:52.527Z,72.27
2023-01-11T15:37:18.882Z,72.95
2023-01-11T15:39:45.385Z,73.52
2023-01-11T15:42:11.862Z,74.01
2023-01-11T15:44:38.525Z,73.48
2023-01-11T15:47:05.010Z,72.70
2023-01-11T15:49:31.614Z,72.87
2023-01-11T15:51:58.324Z,74.13
2023-01-11T15:54:24.801Z,73.51
2023-01-11T15:56:51.167Z,73.43
2023-01-11T15:59:17.682Z,74.34
2023-01-11T16:01:44.375Z,75.09
2023-01-11T16:04:10.895Z,75.13
2023-01-11T16:06:37.493Z,75.97
2023-01-11T16:09:03.991Z,76.53
2023-01-11T16:11:31.263Z,76.52
2023-01-11T16:13:57.605Z,77.38
2023-01-11T16:16:24.086Z,77.93
2023-01-11T16:21:34.500Z,74.03
2023-01-11T16:24:00.998Z,74.19
2023-01-11T16:26:27.430Z,74.32
2023-01-11T16:28:53.837Z,74.34
2023-01-11T16:31:21.060Z,74.39
2023-01-11T16:33:49.779Z,74.36
2023-01-11T16:36:16.393Z,74.78
2023-01-11T16:38:42.790Z,75.78
2023-01-11T16:41:09.141Z,76.00
2023-01-11T16:43:35.529Z,75.97
2023-01-11T16:46:05.518Z,75.52
2023-01-11T16:51:16.315Z,74.86
2023-01-11T16:53:49.446Z,74.57
2023-01-11T16:56:15.881Z,74.48
2023-01-11T16:58:42.547Z,74.04
2023-01-11T17:01:09.991Z,74.30
2023-01-11T17:03:36.486Z,74.20
2023-01-11T17:06:02.931Z,74.04
2023-01-11T17:08:29.379Z,74.11
2023-01-11T17:10:55.904Z,74.49
2023-01-11T17:13:22.303Z,74.42
2023-01-11T17:15:48.732Z,74.11
2023-01-11T17:18:15.249Z,74.53
2023-01-11T17:20:41.625Z,73.91
2023-01-11T17:23:08.024Z,74.29
2023-01-11T17:25:44.391Z,74.39
2023-01-11T17:28:11.161Z,75.10
2023-01-11T17:30:37.571Z,75.25
2023-01-11T17:33:04.239Z,74.79
2023-01-11T17:35:30.857Z,75.07
2023-01-11T17:37:59.629Z,75.69
2023-01-11T17:40:28.658Z,75.03
2023-01-11T17:42:56.789Z,75.59
2023-01-11T17:45:25.823Z,75.27
2023-01-11T17:47:58.800Z,75.05
2023-01-11T17:50:25.344Z,75.35
2023-01-11T17:52:55.415Z,75.24
2023-01-11T17:55:23.988Z,75.44
2023-01-11T17:57:53.941Z,75.17
2023-01-11T18:00:24.787Z,75.48
2023-01-11T18:02:51.289Z,75.68
2023-01-11T18:05:17.716Z,76.00
2023-01-11T18:07:44.184Z,75.06
2023-01-11T18:10:10.645Z,75.05
2023-01-11T18:12:37.524Z,74.32
2023-01-11T18:15:04.018Z,74.13
2023-01-11T18:17:30.364Z,74.39
2023-01-11T18:19:56.720Z,74.75
2023-01-11T18:22:24.234Z,74.87
2023-01-11T18:24:50.824Z,74.24
2023-01-11T18:27:17.271Z,74.86
2023-01-11T18:29:43.743Z,74.26
2023-01-11T18:32:16.782Z,74.29
2023-01-11T18:34:43.173Z,74.61
2023-01-11T18:37:09.524Z,74.49
2023-01-11T18:39:35.863Z,74.95
2023-01-11T18:42:03.103Z,74.97
2023-01-11T18:44:29.516Z,75.01
2023-01-11T18:46:55.954Z,75.26
2023-01-11T18:49:24.077Z,74.87
2023-01-11T18:51:53.015Z,75.00
2023-01-11T18:54:19.454Z,75.42
2023-01-11T18:56:45.956Z,75.63
2023-01-11T18:59:12.733Z,76.12
2023-01-11T19:01:52.631Z,76.76
2023-01-11T19:04:25.539Z,76.23
2023-01-11T19:06:52.110Z,76.31
2023-01-11T19:09:18.571Z,75.67
2023-01-11T19:11:47.647Z,75.13
2023-01-11T19:14:14.552Z,75.51
2023-01-11T19:16:41.088Z,75.22
2023-01-11T19:19:07.471Z,73.79
2023-01-11T19:21:36.372Z,74.13
2023-01-11T19:24:02.859Z,74.78
2023-01-11T19:26:29.335Z,74.14
2023-01-11T19:28:56.078Z,74.08
2023-01-11T19:31:22.703Z,74.96
2023-01-11T19:33:49.385Z,75.26
2023-01-11T19:36:15.878Z,75.80
2023-01-11T19:38:42.288Z,75.57
2023-01-11T19:41:08.715Z,75.54
2023-01-11T19:43:35.219Z,75.58
2023-01-11T19:46:01.725Z,76.17
2023-01-11T19:48:28.136Z,75.85
2023-01-11T19:50:54.657Z,76.22
2023-01-11T19:53:21.060Z,76.26
2023-01-11T19:55:47.603Z,76.03
2023-01-11T19:58:14.035Z,76.27
2023-01-11T20:00:40.497Z,76.14
2023-01-11T20:03:06.987Z,75.35
2023-01-11T20:05:33.545Z,75.87
2023-01-11T20:08:00.110Z,76.26
2023-01-11T20:10:26.563Z,75.76
2023-01-11T20:12:53.048Z,76.67
2023-01-11T20:15:19.432Z,76.02
2023-01-11T20:17:45.881Z,76.89
2023-01-11T20:20:14.986Z,76.76
2023-01-11T20:22:41.513Z,75.85
2023-01-11T20:25:07.935Z,75.94
2023-01-11T20:27:41.921Z,76.21
2023-01-11T20:30:08.381Z,76.47
2023-01-11T20:32:41.880Z,76.35
2023-01-11T20:35:09.798Z,76.50
2023-01-11T20:37:37.077Z,75.97
2023-01-11T20:40:03.536Z,74.94
2023-01-11T20:42:29.988Z,74.66
2023-01-11T20:44:56.725Z,75.18
2023-01-11T20:47:23.258Z,75.67
2023-01-11T20:49:49.686Z,76.42
2023-01-11T20:52:16.129Z,76.14
2023-01-11T20:54:45.013Z,75.66
2023-01-11T20:57:11.487Z,75.38
2023-01-11T20:59:40.001Z,75.10
2023-01-11T21:02:06.441Z,75.03
2023-01-11T21:04:33.019Z,75.13
2023-01-11T21:06:59.441Z,75.32
2023-01-11T21:09:25.911Z,75.82
2023-01-11T21:11:52.359Z,75.28
2023-01-11T21:14:18.841Z,75.50
2023-01-11T21:16:45.583Z,76.38
2023-01-11T21:19:12.045Z,76.50
2023-01-11T21:21:38.602Z,76.34
2023-01-11T21:24:05.077Z,75.88
2023-01-11T21:26:31.502Z,76.19
2023-01-11T21:28:57.909Z,75.59
2023-01-11T21:31:24.425Z,75.52
2023-01-11T21:33:50.983Z,75.98
2023-01-11T21:36:17.441Z,75.86
2023-01-11T21:38:48.344Z,75.81
2023-01-11T21:41:15.914Z,75.65
2023-01-11T21:43:42.422Z,75.11
2023-01-11T21:46:11.441Z,74.75
2023-01-11T21:48:37.879Z,74.87
2023-01-11T21:51:04.366Z,75.39
2023-01-11T21:53:30.961Z,74.87
2023-01-11T21:56:00.375Z,75.02
2023-01-11T21:58:26.835Z,74.73
2023-01-11T22:00:53.421Z,74.20
2023-01-11T22:03:22.701Z,73.84
2023-01-11T22:05:49.273Z,73.35
2023-01-11T22:08:15.815Z,74.23
2023-01-11T22:10:42.324Z,73.92
2023-01-11T22:13:08.843Z,73.94
2023-01-11T22:15:35.249Z,74.48
2023-01-11T22:18:01.781Z,74.50
2023-01-11T22:20:28.274Z,74.90
2023-01-11T22:22:54.705Z,74.86
2023-01-11T22:25:21.141Z,74.13
2023-01-11T22:27:47.624Z,74.31
2023-01-11T22:30:16.963Z,74.57
2023-01-11T22:32:43.464Z,73.54
2023-01-11T22:37:50.187Z,73.80
2023-01-11T22:40:16.588Z,73.95
2023-01-11T22:42:46.093Z,74.96
2023-01-11T22:45:12.557Z,74.80
2023-01-11T22:47:38.937Z,74.60
2023-01-11T22:50:05.363Z,73.72
2023-01-11T22:52:31.867Z,69.09
2023-01-11T22:54:58.311Z,69.68
2023-01-11T22:57:24.746Z,69.13
2023-01-11T22:59:51.219Z,69.17
2023-01-11T23:02:17.722Z,69.29
2023-01-11T23:04:44.199Z,66.41
2023-01-11T23:07:11.227Z,64.42
2023-01-11T23:09:37.744Z,64.83
2023-01-11T23:12:04.258Z,64.06
2023-01-11T23:14:30.762Z,62.98
2023-01-11T23:16:57.274Z,62.27
2023-01-11T23:19:23.789Z,63.50
2023-01-11T23:24:31.276Z,66.19
2023-01-11T23:26:57.786Z,65.42
2023-01-11T23:29:36.017Z,66.19
2023-01-11T23:32:02.569Z,66.06
2023-01-11T23:34:29.067Z,65.83
2023-01-11T23:36:55.555Z,65.62
2023-01-11T23:39:22.054Z,66.24
2023-01-11T23:41:48.626Z,65.29
2023-01-11T23:44:15.049Z,66.17
2023-01-11T23:46:41.470Z,66.04
2023-01-11T23:49:07.798Z,65.51
2023-01-11T23:51:34.135Z,64.87
2023-01-11T23:54:00.475Z,63.04
2023-01-11T23:56:26.839Z,63.61
